createdAt,value
2022-08-07T00:08:55.390Z,12.4
2022-08-07T00:18:57.505Z,12.2
2022-08-07T00:39:01.405Z,12
2022-08-07T00:49:03.823Z,11.7
2022-08-07T00:59:06.197Z,11.5
2022-08-07T01:09:08.656Z,11.4
2022-08-07T01:19:18.672Z,11.4
2022-08-07T01:29:13.459Z,11.3
2022-08-07T01:39:15.944Z,11.2
2022-08-07T01:49:18.195Z,11.2
2022-08-07T01:59:20.377Z,11.1
2022-08-07T02:09:33.566Z,11.1
2022-08-07T02:20:03.763Z,10.9
2022-08-07T02:29:26.888Z,10.8
2022-08-07T02:39:42.772Z,10.8
2022-08-07T02:59:34.111Z,10.6
2022-08-07T03:09:42.575Z,10.4
2022-08-07T03:19:38.791Z,10.3
2022-08-07T03:29:44.717Z,10.2
2022-08-07T03:39:46.683Z,10.2
2022-08-07T03:49:47.882Z,10.1
2022-08-07T04:00:01.513Z,10.1
2022-08-07T04:09:50.075Z,10
2022-08-07T04:19:54.335Z,10
2022-08-07T04:29:59.046Z,10
2022-08-07T04:39:56.684Z,10.3
2022-08-07T04:50:04.357Z,10.9
2022-08-07T05:00:08.142Z,11.6
2022-08-07T05:10:04.609Z,12.4
2022-08-07T05:20:09.544Z,13.1
2022-08-07T05:30:07.104Z,14
2022-08-07T05:40:16.896Z,14.6
2022-08-07T05:50:10.987Z,15.2
2022-08-07T06:00:15.903Z,16
2022-08-07T06:10:15.251Z,16.5
2022-08-07T06:20:25.753Z,15.7
2022-08-07T06:30:24.468Z,16.5
2022-08-07T06:40:21.739Z,16.7
2022-08-07T06:50:23.694Z,17
2022-08-07T07:00:26.301Z,17.9
2022-08-07T07:10:28.461Z,18.1
2022-08-07T07:20:30.567Z,17.9
2022-08-07T07:30:38.173Z,18.4
2022-08-07T07:40:34.818Z,18.8
2022-08-07T07:50:39.249Z,20.1
2022-08-07T08:00:39.462Z,21
2022-08-07T08:10:41.421Z,20.8
2022-08-07T08:20:43.873Z,20.9
2022-08-07T08:30:50.915Z,21.3
2022-08-07T08:33:24.568Z,21.3
2022-08-07T08:40:57.982Z,22.3
2022-08-07T08:50:59.970Z,23.1
2022-08-07T09:01:02.349Z,22.5
2022-08-07T09:11:04.877Z,23.4
2022-08-07T09:21:06.869Z,23.9
2022-08-07T09:31:08.715Z,22.9
2022-08-07T09:41:10.592Z,24
2022-08-07T09:51:14.699Z,24.2
2022-08-07T10:01:14.810Z,23.9
2022-08-07T10:11:16.626Z,23.5
2022-08-07T10:21:19.711Z,23.9
2022-08-07T10:31:20.423Z,23.7
2022-08-07T10:41:46.065Z,23.6
2022-08-07T10:51:38.957Z,24.4
2022-08-07T11:01:35.411Z,24.8
2022-08-07T11:11:29.697Z,25.1
2022-08-07T11:21:32.236Z,25.4
2022-08-07T11:31:34.985Z,24.5
2022-08-07T11:42:00.587Z,25.1
2022-08-07T12:01:58.909Z,24.4
2022-08-07T12:11:43.309Z,25.8
2022-08-07T12:21:55.236Z,24.4
2022-08-07T12:31:52.590Z,24.8
2022-08-07T12:41:49.631Z,25
2022-08-07T12:51:51.581Z,24.7
2022-08-07T13:01:51.945Z,24.7
2022-08-07T13:12:01.042Z,24.7
2022-08-07T13:22:00.671Z,25.1
2022-08-07T13:32:00.001Z,26.2
2022-08-07T13:41:59.925Z,27
2022-08-07T13:52:05.738Z,27
2022-08-07T14:02:05.240Z,26.9
2022-08-07T14:12:07.475Z,26.5
2022-08-07T14:22:10.642Z,26.7
2022-08-07T14:32:12.264Z,26.5
2022-08-07T14:42:18.952Z,26
2022-08-07T14:52:16.845Z,25.5
2022-08-07T15:02:31.610Z,25.3
2022-08-07T15:12:25.478Z,25.2
2022-08-07T15:22:29.087Z,24.6
2022-08-07T15:52:31.157Z,24.8
2022-08-07T16:12:34.479Z,25
2022-08-07T16:22:37.842Z,25
2022-08-07T16:32:39.488Z,25.1
2022-08-07T16:42:41.225Z,25.1
2022-08-07T16:52:51.097Z,24.6
2022-08-07T17:02:51.944Z,24.5
2022-08-07T17:12:48.121Z,24.1
2022-08-07T17:22:50.271Z,23.9
2022-08-07T17:32:53.230Z,23.7
2022-08-07T17:42:58.091Z,23.6
2022-08-07T17:52:58.862Z,23.4
2022-08-07T18:02:58.951Z,23.3
2022-08-07T18:23:04.616Z,23.1
2022-08-07T18:53:09.497Z,22.2
2022-08-07T19:03:11.756Z,21.9
2022-08-07T19:13:21.462Z,21.5
2022-08-07T19:23:18.078Z,21.2
2022-08-07T19:43:21.471Z,20.7
2022-08-07T19:54:30.534Z,20.3
2022-08-07T20:03:55.686Z,20
2022-08-07T20:43:33.250Z,18.7
2022-08-07T21:03:38.150Z,18.1
2022-08-07T21:13:43.572Z,17.9
2022-08-07T21:33:44.807Z,17.4
2022-08-07T21:43:47.718Z,17.2
2022-08-07T21:53:52.627Z,17
2022-08-07T22:23:55.039Z,16.6
2022-08-07T22:33:57.727Z,16.5
2022-08-07T22:43:59.409Z,16.2
2022-08-07T22:54:05.846Z,15.9
2022-08-07T23:14:10.663Z,15.7
2022-08-07T23:24:09.276Z,15.6
2022-08-07T23:34:24.828Z,15.4
2022-08-07T23:44:12.387Z,15.2
2022-08-07T23:54:19.717Z,15
